Time;durP1;ratioP1;P1;durP2;ratioP2;P2;SDS_P1;SDS_P2;PMS_P1;PMS_P2;Temp;Humidity;BMP_temperature;BMP_pressure;BME280_temperature;BME280_humidity;BME280_pressure;Samples;Min_cycle;Max_cycle;Signal;HPM_P1;HPM_P2
2021/08/19 00:02:22;;;;;;;;;2.75;2.00;;;;;20.50;100.00;101525.00;5101059;27;47486;-68
2021/08/19 00:04:48;;;;;;;;;3.00;2.25;;;;;20.48;100.00;101524.22;5119898;27;45275;-68
2021/08/19 00:07:15;;;;;;;;;1.50;1.50;;;;;20.53;100.00;101534.63;5120220;27;45553;-68
2021/08/19 00:09:40;;;;;;;;;2.00;2.00;;;;;20.56;100.00;101540.66;5120137;27;45358;-68
2021/08/19 00:18:49;;;;;;;;;1.00;1.00;;;;;20.47;100.00;101523.34;5119855;27;45301;-68
2021/08/19 00:21:14;;;;;;;;;2.25;2.25;;;;;20.47;100.00;101530.44;5120090;27;45260;-68
2021/08/19 00:23:39;;;;;;;;;2.00;2.00;;;;;20.44;100.00;101525.28;5119823;27;46212;-68
2021/08/19 00:26:05;;;;;;;;;1.00;1.00;;;;;20.42;100.00;101514.75;5120013;27;45250;-68
2021/08/19 00:28:31;;;;;;;;;2.00;2.00;;;;;20.37;100.00;101510.53;5120007;27;45409;-68
2021/08/19 00:30:57;;;;;;;;;2.00;1.50;;;;;20.36;100.00;101514.94;5120316;27;45218;-68
2021/08/19 00:33:24;;;;;;;;;2.00;2.00;;;;;20.35;100.00;101517.66;5119721;27;46384;-68
2021/08/19 00:35:49;;;;;;;;;2.00;2.00;;;;;20.25;100.00;101503.94;5119879;27;45801;-68
2021/08/19 00:38:14;;;;;;;;;2.25;2.00;;;;;20.29;100.00;101505.53;5119978;27;45829;-68
2021/08/19 00:40:40;;;;;;;;;4.00;3.00;;;;;20.24;100.00;101494.25;5119962;27;45315;-68
2021/08/19 00:43:06;;;;;;;;;3.75;2.00;;;;;20.23;100.00;101499.63;5119552;27;46334;-67
2021/08/19 00:45:34;;;;;;;;;2.25;2.25;;;;;20.22;100.00;101500.56;5119562;27;45377;-68
2021/08/19 00:47:59;;;;;;;;;2.00;2.00;;;;;20.17;100.00;101495.47;5119567;27;45193;-68
2021/08/19 00:50:26;;;;;;;;;4.00;2.25;;;;;20.15;100.00;101492.00;5120039;27;45347;-68
2021/08/19 00:52:52;;;;;;;;;2.25;2.25;;;;;20.12;100.00;101492.97;5119575;27;47591;-68
2021/08/19 00:55:17;;;;;;;;;2.50;2.00;;;;;19.99;100.00;101483.81;5119633;27;45239;-69
2021/08/19 00:57:47;;;;;;;;;3.00;3.00;;;;;20.09;100.00;101505.50;5119673;27;45191;-69
2021/08/19 01:00:13;;;;;;;;;1.75;1.75;;;;;19.88;100.00;101472.78;5119750;27;45427;-69
2021/08/19 01:02:42;;;;;;;;;2.25;2.25;;;;;20.09;100.00;101505.50;5119136;27;47299;-68
2021/08/19 01:05:10;;;;;;;;;3.50;3.00;;;;;20.06;100.00;101500.34;5119351;27;45475;-68
2021/08/19 01:07:36;;;;;;;;;2.00;2.00;;;;;20.02;100.00;101498.75;5119361;27;45311;-69
2021/08/19 01:10:01;;;;;;;;;2.00;2.00;;;;;20.04;100.00;101502.19;5119931;27;45290;-68
2021/08/19 01:12:26;;;;;;;;;2.25;2.00;;;;;19.97;100.00;101495.44;5119070;27;46147;-68
2021/08/19 01:14:52;;;;;;;;;4.00;2.00;;;;;19.98;100.00;101491.84;5119195;27;45284;-69
2021/08/19 01:17:18;;;;;;;;;2.00;2.00;;;;;19.91;100.00;101477.97;5119353;27;45681;-67
2021/08/19 01:19:50;;;;;;;;;2.00;2.00;;;;;19.97;100.00;101490.13;5119350;27;45404;-68
2021/08/19 01:22:16;;;;;;;;;3.25;2.25;;;;;20.01;100.00;101492.56;5119087;27;46540;-67
2021/08/19 01:24:42;;;;;;;;;1.00;1.00;;;;;20.01;100.00;101484.63;5118932;27;45381;-68
2021/08/19 01:27:15;;;;;;;;;2.25;2.25;;;;;20.05;100.00;101491.53;5119120;27;45291;-68
2021/08/19 01:33:02;;;;;;;;;3.00;3.00;;;;;20.02;100.00;101486.34;5118760;27;45248;-69
2021/08/19 01:35:29;;;;;;;;;2.25;2.00;;;;;20.02;100.00;101490.78;5118932;27;45277;-68
2021/08/19 01:37:54;;;;;;;;;2.00;2.00;;;;;19.91;100.00;101464.72;5119010;27;45376;-68
2021/08/19 01:40:20;;;;;;;;;3.50;2.00;;;;;19.93;100.00;101469.97;5119262;27;45311;-68
2021/08/19 01:42:46;;;;;;;;;3.00;3.00;;;;;20.02;100.00;101481.03;5119047;27;45456;-67
2021/08/19 01:45:16;;;;;;;;;2.00;2.00;;;;;20.02;100.00;101475.75;5118614;27;45578;-68
2021/08/19 01:47:42;;;;;;;;;3.00;2.00;;;;;20.02;100.00;101483.69;5118928;27;45278;-68
2021/08/19 01:50:08;;;;;;;;;4.00;2.00;;;;;19.98;100.00;101476.81;5118873;27;45542;-68
2021/08/19 01:52:33;;;;;;;;;3.75;3.00;;;;;19.95;100.00;101476.06;5118612;27;47058;-68
2021/08/19 01:54:58;;;;;;;;;2.00;2.00;;;;;19.97;100.00;101484.81;5118650;27;45158;-68
2021/08/19 01:57:24;;;;;;;;;2.00;1.50;;;;;19.86;100.00;101466.69;5118597;27;45169;-68
2021/08/19 01:59:50;;;;;;;;;3.00;2.50;;;;;19.91;100.00;101472.66;5120877;27;45528;-68
2021/08/19 02:02:16;;;;;;;;;2.00;2.00;;;;;19.89;100.00;101471.88;5125297;27;46524;-68
2021/08/19 02:04:41;;;;;;;;;3.00;3.00;;;;;19.88;100.00;101471.00;5125338;27;45396;-69
2021/08/19 02:07:06;;;;;;;;;3.75;3.00;;;;;19.92;100.00;101481.50;5125409;27;45510;-69
2021/08/19 02:09:37;;;;;;;;;2.00;2.00;;;;;19.91;100.00;101469.16;5125567;27;45534;-68
2021/08/19 02:12:03;;;;;;;;;2.00;2.00;;;;;19.87;100.00;101468.41;5125430;27;46085;-67
2021/08/19 02:17:50;;;;;;;;;3.25;3.25;;;;;19.85;100.00;101479.09;5125351;27;45252;-67
2021/08/19 02:20:16;;;;;;;;;3.00;3.00;;;;;19.79;100.00;101466.09;5125490;27;45326;-67
2021/08/19 02:22:41;;;;;;;;;1.00;1.00;;;;;19.80;100.00;101478.41;5125387;27;45343;-68
2021/08/19 02:25:07;;;;;;;;;2.75;2.75;;;;;19.76;100.00;101463.56;5125305;27;45243;-68
2021/08/19 02:27:32;;;;;;;;;2.00;2.00;;;;;19.82;100.00;101465.97;5125128;27;45237;-68
2021/08/19 02:29:58;;;;;;;;;2.00;2.00;;;;;19.78;100.00;101461.72;5125324;27;45182;-68
2021/08/19 02:32:24;;;;;;;;;2.00;2.00;;;;;19.81;100.00;101460.72;5124961;27;46272;-68
2021/08/19 02:34:52;;;;;;;;;2.00;1.25;;;;;19.81;100.00;101460.72;5125183;27;45479;-68
2021/08/19 02:37:17;;;;;;;;;2.00;2.00;;;;;19.77;100.00;101452.03;5125110;27;45360;-68
2021/08/19 02:39:43;;;;;;;;;2.50;2.50;;;;;19.79;100.00;101460.78;5125297;27;45367;-68
2021/08/19 02:42:08;;;;;;;;;1.25;1.25;;;;;19.74;100.00;101446.88;5124888;27;47099;-69
2021/08/19 02:47:55;;;;;;;;;2.00;2.00;;;;;19.70;100.00;101450.59;5125111;27;45405;-68
2021/08/19 02:50:20;;;;;;;;;2.00;2.00;;;;;19.64;100.00;101442.00;5125447;27;45431;-68
2021/08/19 02:52:46;;;;;;;;;3.00;2.75;;;;;19.63;100.00;101440.28;5106607;27;46398;-66
2021/08/19 02:55:11;;;;;;;;;2.50;2.00;;;;;19.63;100.00;101440.28;5124716;27;45433;-69
2021/08/19 02:57:37;;;;;;;;;2.75;2.75;;;;;19.60;100.00;101440.41;5125176;27;45232;-68
2021/08/19 03:00:04;;;;;;;;;1.00;1.00;;;;;19.62;100.00;101444.72;5125043;27;45312;-68
2021/08/19 03:02:29;;;;;;;;;3.50;3.00;;;;;19.46;100.00;101425.91;5124349;27;46540;-68
2021/08/19 03:04:55;;;;;;;;;5.25;4.00;;;;;19.53;100.00;101440.66;5106222;27;45237;-69
2021/08/19 03:07:20;;;;;;;;;2.00;2.00;;;;;19.43;100.00;101427.78;5125019;27;45169;-68
2021/08/19 03:09:46;;;;;;;;;2.75;2.00;;;;;19.45;100.00;101434.75;5124972;27;45460;-67
2021/08/19 03:12:11;;;;;;;;;2.75;2.75;;;;;19.43;100.00;101433.94;5121985;27;46996;-68
2021/08/19 03:17:58;;;;;;;;;2.00;2.00;;;;;19.37;100.00;101441.28;5121332;27;45342;-68
2021/08/19 03:20:24;;;;;;;;;1.00;1.00;;;;;19.30;100.00;101431.88;5121421;27;45301;-69
2021/08/19 03:22:51;;;;;;;;;2.25;2.25;;;;;19.21;100.00;101422.47;5120854;27;47220;-68
2021/08/19 03:25:17;;;;;;;;;2.00;2.00;;;;;19.28;100.00;101430.16;5120886;27;45454;-68
2021/08/19 03:27:43;;;;;;;;;3.25;2.00;;;;;19.30;100.00;101442.47;5121038;27;45271;-68
2021/08/19 03:30:09;;;;;;;;;4.75;3.00;;;;;19.25;100.00;101432.06;5121157;27;45533;-68
2021/08/19 03:32:37;;;;;;;;;2.00;2.00;;;;;19.24;100.00;101425.91;5120745;27;47177;-69
2021/08/19 03:35:02;;;;;;;;;10.75;8.75;;;;;19.25;100.00;101440.88;5120691;27;45356;-69
2021/08/19 03:37:29;;;;;;;;;45.50;34.50;;;;;19.08;100.00;101402.72;5120766;27;45299;-68
2021/08/19 03:39:54;;;;;;;;;61.50;47.75;;;;;19.05;100.00;101400.22;5120828;27;45343;-68
2021/08/19 03:42:20;;;;;;;;;63.00;48.00;;;;;19.18;100.00;101426.13;5120441;27;47492;-68
2021/08/19 03:48:07;;;;;;;;;45.25;37.00;;;;;19.17;100.00;101427.03;5120711;27;45359;-68
2021/08/19 03:50:34;;;;;;;;;34.75;30.00;;;;;19.21;100.00;101431.28;5121038;27;45456;-68
2021/08/19 03:52:59;;;;;;;;;26.50;23.00;;;;;19.14;100.00;101407.78;5120624;27;45506;-69
2021/08/19 03:55:25;;;;;;;;;20.75;13.75;;;;;19.11;100.00;101411.41;5120693;27;45338;-69
2021/08/19 03:57:50;;;;;;;;;32.75;24.75;;;;;19.22;100.00;101430.38;5120775;27;45638;-68
2021/08/19 04:00:16;;;;;;;;;24.50;19.00;;;;;19.20;100.00;101420.75;5120921;27;45341;-67
2021/08/19 04:02:44;;;;;;;;;10.25;7.50;;;;;19.20;100.00;101424.28;5119973;27;47392;-69
2021/08/19 04:05:09;;;;;;;;;9.00;6.00;;;;;19.08;100.00;101408.88;5120482;27;45225;-69
2021/08/19 04:07:35;;;;;;;;;7.50;6.50;;;;;19.17;100.00;101423.53;5120546;27;45383;-68
2021/08/19 04:10:00;;;;;;;;;6.00;5.00;;;;;19.16;100.00;101424.47;5120633;27;45484;-68
2021/08/19 04:12:26;;;;;;;;;4.75;4.75;;;;;19.23;100.00;101428.59;5120134;27;47399;-68
2021/08/19 04:18:14;;;;;;;;;3.00;3.00;;;;;19.26;100.00;101428.50;5120217;27;45310;-68
2021/08/19 04:20:40;;;;;;;;;4.00;3.25;;;;;19.28;100.00;101426.63;5120468;27;45358;-69
2021/08/19 04:23:05;;;;;;;;;3.75;3.00;;;;;19.23;100.00;101421.50;5119374;27;47271;-69
2021/08/19 04:25:31;;;;;;;;;4.50;3.75;;;;;19.21;100.00;101418.06;5119831;27;45387;-68
2021/08/19 04:27:56;;;;;;;;;4.25;4.25;;;;;19.18;100.00;101409.38;5119935;27;45721;-68
2021/08/19 04:30:22;;;;;;;;;3.00;3.00;;;;;19.24;100.00;101422.41;5120210;27;45346;-68
2021/08/19 04:32:47;;;;;;;;;6.75;3.50;;;;;19.24;100.00;101423.25;5119704;27;46566;-69
2021/08/19 04:35:13;;;;;;;;;3.75;3.75;;;;;19.10;100.00;101395.59;5119676;27;45332;-68
2021/08/19 04:37:39;;;;;;;;;2.25;2.25;;;;;19.18;100.00;101410.25;5119935;27;45294;-69
2021/08/19 04:40:05;;;;;;;;;4.00;3.25;;;;;19.17;100.00;101412.94;5119992;27;45578;-69
2021/08/19 04:42:30;;;;;;;;;3.75;3.00;;;;;19.19;100.00;101422.56;5119561;27;46467;-69
2021/08/19 04:48:17;;;;;;;;;3.00;2.75;;;;;19.18;100.00;101415.53;5119648;27;45450;-68
2021/08/19 04:50:43;;;;;;;;;4.00;4.00;;;;;19.16;100.00;101413.88;5119884;27;45444;-68
2021/08/19 04:53:08;;;;;;;;;3.00;3.00;;;;;19.12;100.00;101415.78;5101544;27;45508;-69
2021/08/19 04:55:34;;;;;;;;;5.25;4.00;;;;;19.11;100.00;101418.50;5119743;27;45338;-68
2021/08/19 04:57:59;;;;;;;;;3.50;3.50;;;;;19.10;100.00;101428.22;5119811;27;45264;-69
2021/08/19 05:00:24;;;;;;;;;3.50;2.25;;;;;18.96;100.00;101426.09;5120040;27;45211;-69
2021/08/19 05:02:50;;;;;;;;;4.00;3.75;;;;;18.96;100.00;101426.09;5119192;27;46105;-68
2021/08/19 05:05:15;;;;;;;;;3.50;3.00;;;;;19.04;100.00;101431.09;5119325;27;45341;-68
2021/08/19 05:07:41;;;;;;;;;4.50;4.50;;;;;19.06;100.00;101433.69;5119379;27;45341;-69
2021/08/19 05:10:07;;;;;;;;;4.00;4.00;;;;;18.92;100.00;101415.69;5119919;27;45218;-69
2021/08/19 05:12:32;;;;;;;;;4.00;4.00;;;;;19.06;100.00;101437.19;5119020;27;45447;-68
2021/08/19 05:18:19;;;;;;;;;4.00;4.00;;;;;19.00;100.00;101431.25;5119380;27;45358;-68
2021/08/19 05:20:44;;;;;;;;;4.50;3.25;;;;;18.97;100.00;101429.59;5119320;27;45424;-69
2021/08/19 05:23:10;;;;;;;;;3.75;3.00;;;;;19.06;100.00;101445.13;5118929;27;46588;-69
2021/08/19 05:25:35;;;;;;;;;2.75;2.25;;;;;18.97;100.00;101433.09;5119278;27;45334;-69
2021/08/19 05:28:01;;;;;;;;;4.50;4.00;;;;;18.97;100.00;101430.44;5119049;27;45246;-69
2021/08/19 05:30:26;;;;;;;;;5.00;4.25;;;;;19.06;100.00;101444.28;5119311;27;45493;-69
2021/08/19 05:32:51;;;;;;;;;1.00;0.00;;;;;19.08;100.00;101443.28;5118870;27;46442;-68
2021/08/19 05:35:17;;;;;;;;;6.50;4.00;;;;;19.09;100.00;101442.38;5117823;27;45313;-68
2021/08/19 05:37:42;;;;;;;;;5.50;4.00;;;;;19.09;100.00;101445.03;5119348;27;45371;-69
2021/08/19 05:40:08;;;;;;;;;0.00;0.00;;;;;19.09;100.00;101446.81;5119470;27;45269;-69
2021/08/19 05:42:33;;;;;;;;;4.25;4.00;;;;;19.11;100.00;101451.13;5119016;27;46438;-69
2021/08/19 05:48:20;;;;;;;;;6.00;4.75;;;;;19.06;100.00;101446.91;5118760;27;45313;-69
2021/08/19 05:50:46;;;;;;;;;5.00;4.50;;;;;19.12;100.00;101450.19;5119044;27;45432;-69
2021/08/19 05:53:11;;;;;;;;;4.75;4.00;;;;;19.12;100.00;101459.91;5118693;27;46275;-69
2021/08/19 05:55:36;;;;;;;;;5.00;3.50;;;;;19.12;100.00;101449.34;5118617;27;45277;-68
2021/08/19 05:58:02;;;;;;;;;4.75;4.75;;;;;19.11;100.00;101456.41;5118732;27;45289;-70
2021/08/19 06:00:27;;;;;;;;;4.25;4.00;;;;;19.09;100.00;101452.97;5118874;27;45258;-68
2021/08/19 06:02:53;;;;;;;;;5.00;4.00;;;;;19.13;100.00;101464.28;5118316;27;47030;-69
2021/08/19 06:05:18;;;;;;;;;4.00;4.00;;;;;19.12;100.00;101462.56;5118514;27;45280;-68
2021/08/19 06:07:45;;;;;;;;;5.75;4.75;;;;;19.13;100.00;101459.84;5118601;27;45453;-69
2021/08/19 06:10:12;;;;;;;;;5.75;4.75;;;;;19.13;100.00;101454.56;5118888;27;45373;-69
2021/08/19 06:12:37;;;;;;;;;5.25;5.25;;;;;19.11;100.00;101452.91;5118410;27;47466;-69
2021/08/19 06:18:24;;;;;;;;;4.50;4.00;;;;;19.19;100.00;101449.03;5118626;27;45355;-68
2021/08/19 06:20:50;;;;;;;;;5.75;4.00;;;;;19.24;100.00;101444.44;5118589;27;45314;-69
2021/08/19 06:23:15;;;;;;;;;5.50;4.75;;;;;19.21;100.00;101428.66;5118488;27;45416;-68
2021/08/19 06:25:42;;;;;;;;;4.75;4.75;;;;;19.31;100.00;101449.47;5118135;27;45349;-66
2021/08/19 06:28:08;;;;;;;;;6.00;5.00;;;;;19.29;100.00;101444.25;5118316;27;45298;-67
2021/08/19 06:30:34;;;;;;;;;4.00;4.00;;;;;19.33;100.00;101445.00;5118808;27;45366;-68
2021/08/19 06:33:00;;;;;;;;;6.25;5.00;;;;;19.33;100.00;101445.84;5117953;27;45429;-68
2021/08/19 06:35:26;;;;;;;;;5.75;4.50;;;;;19.28;100.00;101438.09;5118249;27;45507;-68
2021/08/19 06:37:52;;;;;;;;;5.75;5.00;;;;;19.30;100.00;101445.97;5118356;27;45351;-68
2021/08/19 06:40:17;;;;;;;;;4.50;4.00;;;;;19.31;100.00;101447.69;5118435;27;45281;-67
2021/08/19 06:42:42;;;;;;;;;7.00;5.00;;;;;19.38;100.00;101458.91;5118155;27;46391;-68
2021/08/19 06:48:30;;;;;;;;;4.75;4.75;;;;;19.52;100.00;101452.16;5121361;27;45387;-69
2021/08/19 06:50:55;;;;;;;;;6.00;5.00;;;;;19.55;100.00;101453.84;5103173;27;45220;-67
2021/08/19 06:53:20;;;;;;;;;4.75;4.00;;;;;19.53;100.00;101442.41;5120956;27;47309;-69
2021/08/19 06:55:46;;;;;;;;;4.75;4.50;;;;;19.59;100.00;101447.50;5121070;27;45362;-68
2021/08/19 06:58:11;;;;;;;;;5.00;5.00;;;;;19.58;100.00;101449.28;5121437;27;45352;-69
2021/08/19 07:00:37;;;;;;;;;4.50;4.50;;;;;19.59;100.00;101455.44;5121411;27;45357;-70
2021/08/19 07:03:02;;;;;;;;;5.00;4.00;;;;;19.52;100.00;101435.41;5120725;27;45338;-69
2021/08/19 07:05:28;;;;;;;;;2.25;2.00;;;;;19.63;100.00;101445.56;5120862;27;45237;-68
2021/08/19 07:07:59;;;;;;;;;5.25;5.00;;;;;19.68;100.00;101447.09;5120986;27;45278;-68
2021/08/19 07:10:25;;;;;;;;;7.00;6.00;;;;;19.63;100.00;101435.84;5121043;27;45357;-69
2021/08/19 07:12:50;;;;;;;;;5.00;4.00;;;;;19.75;100.00;101442.44;5120909;27;45308;-70
2021/08/19 07:18:37;;;;;;;;;6.50;5.50;;;;;19.91;100.00;101447.94;5120754;27;45349;-69
2021/08/19 07:21:03;;;;;;;;;6.75;6.00;;;;;19.94;100.00;101442.53;5120875;27;45431;-69
2021/08/19 07:23:28;;;;;;;;;6.00;5.25;;;;;20.00;100.00;101445.78;5120464;27;45582;-70
2021/08/19 07:25:54;;;;;;;;;7.00;5.25;;;;;20.07;100.00;101454.34;5120445;27;45508;-69
2021/08/19 07:28:19;;;;;;;;;5.75;5.50;;;;;20.13;100.00;101452.28;5120677;27;45325;-69
2021/08/19 07:30:45;;;;;;;;;8.00;6.25;;;;;20.12;100.00;101441.75;5120783;27;45299;-69
2021/08/19 07:33:11;;;;;;;;;8.25;6.50;;;;;20.16;100.00;101440.72;5120406;27;46451;-69
2021/08/19 07:35:37;;;;;;;;;5.00;5.00;;;;;20.14;100.00;101445.19;5120363;27;45515;-69
2021/08/19 07:38:02;;;;;;;;;7.50;7.50;;;;;20.18;100.00;101449.47;5120372;27;45294;-69
2021/08/19 07:40:30;;;;;;;;;5.00;4.00;;;;;20.18;100.00;101438.84;5120596;27;45239;-69
2021/08/19 07:42:56;;;;;;;;;6.75;5.00;;;;;20.26;100.00;101443.81;5120565;27;46146;-69
2021/08/19 07:48:44;;;;;;;;;6.00;5.00;;;;;20.43;100.00;101447.50;5120381;27;45364;-69
2021/08/19 07:51:09;;;;;;;;;4.00;4.00;;;;;20.49;100.00;101447.22;5120603;27;45219;-69
2021/08/19 07:53:35;;;;;;;;;6.75;5.00;;;;;20.53;100.00;101447.06;5120082;27;46858;-68
2021/08/19 07:56:01;;;;;;;;;9.50;4.50;;;;;20.56;100.00;101442.50;5120024;27;45426;-68
2021/08/19 07:58:26;;;;;;;;;6.00;5.00;;;;;20.62;100.00;101447.53;5118955;27;45358;-68
2021/08/19 08:00:52;;;;;;;;;6.00;5.00;;;;;20.55;100.00;101426.63;5120163;27;45289;-68
2021/08/19 08:03:17;;;;;;;;;5.00;4.75;;;;;20.60;100.00;101446.75;5119666;27;46206;-68
2021/08/19 08:05:42;;;;;;;;;7.75;6.50;;;;;20.61;100.00;101453.78;5119520;27;45353;-69
2021/08/19 08:08:12;;;;;;;;;4.25;4.25;;;;;20.63;100.00;101461.69;5120148;27;45329;-69
2021/08/19 08:10:41;;;;;;;;;7.00;6.75;;;;;20.59;100.00;101455.63;5120296;27;45279;-69
2021/08/19 08:13:07;;;;;;;;;7.00;5.50;;;;;20.45;100.00;101429.72;5119486;27;45530;-69
2021/08/19 08:18:55;;;;;;;;;6.50;5.00;;;;;20.57;100.00;101459.28;5119699;27;45363;-68
2021/08/19 08:21:20;;;;;;;;;6.00;5.25;;;;;20.45;100.00;101455.38;5120183;27;45308;-69
2021/08/19 08:23:47;;;;;;;;;4.00;4.00;;;;;20.53;100.00;101463.00;5119538;27;46453;-69
2021/08/19 08:26:13;;;;;;;;;5.00;5.00;;;;;20.50;100.00;101474.59;5119423;27;45283;-69
2021/08/19 08:28:38;;;;;;;;;5.00;5.00;;;;;20.51;100.00;101463.06;5119635;27;45436;-69
2021/08/19 08:31:04;;;;;;;;;8.00;6.00;;;;;20.49;100.00;101467.56;5119854;27;45373;-68
2021/08/19 08:33:32;;;;;;;;;5.00;4.50;;;;;20.51;100.00;101470.16;5119375;27;47119;-69
2021/08/19 08:36:01;;;;;;;;;4.00;4.00;;;;;20.55;100.00;101462.00;5119734;27;45545;-69
2021/08/19 08:38:28;;;;;;;;;5.25;4.75;;;;;20.64;100.00;101469.56;5119825;27;45332;-69
2021/08/19 08:40:54;;;;;;;;;6.00;5.25;;;;;20.66;100.00;101480.97;5119846;27;45476;-69
2021/08/19 08:43:22;;;;;;;;;4.25;4.25;;;;;20.69;100.00;101469.34;5101177;27;46594;-69
2021/08/19 08:45:49;;;;;;;;;6.75;5.75;;;;;20.68;100.00;101470.28;5119192;27;45223;-68
2021/08/19 08:48:17;;;;;;;;;5.75;5.00;;;;;20.73;100.00;101478.91;5119424;27;45274;-70
2021/08/19 08:50:48;;;;;;;;;9.50;7.00;;;;;20.68;100.00;101471.16;5119515;27;45288;-69
2021/08/19 08:53:14;;;;;;;;;5.00;5.00;;;;;20.59;100.00;101462.72;5119426;27;46235;-68
2021/08/19 08:55:40;;;;;;;;;7.25;6.75;;;;;20.58;100.00;101466.28;5119417;27;45414;-69
2021/08/19 08:58:09;;;;;;;;;6.50;6.00;;;;;20.44;100.00;101449.22;5119603;27;45256;-69
2021/08/19 09:03:56;;;;;;;;;5.00;5.00;;;;;20.50;100.00;101466.66;5117257;27;45876;-69
2021/08/19 09:06:36;;;;;;;;;4.75;3.00;;;;;20.57;100.00;101485.81;5119088;27;45376;-69
2021/08/19 09:09:25;;;;;;;;;4.00;2.75;;;;;20.54;100.00;101481.50;5118863;27;45293;-69
2021/08/19 09:12:00;;;;;;;;;4.00;4.00;;;;;20.57;100.00;101484.00;5119331;27;45296;-69
2021/08/19 09:14:35;;;;;;;;;4.25;3.25;;;;;20.52;100.00;101477.19;5118765;27;45789;-69
2021/08/19 09:17:01;;;;;;;;;5.50;5.00;;;;;20.53;100.00;101478.91;5119139;27;45384;-69
2021/08/19 09:19:32;;;;;;;;;6.00;4.75;;;;;20.61;100.00;101479.47;5118956;27;45342;-69
2021/08/19 09:21:59;;;;;;;;;2.00;2.00;;;;;20.66;100.00;101485.41;5119388;27;45189;-69
2021/08/19 09:24:35;;;;;;;;;3.00;3.00;;;;;20.66;100.00;101483.63;5118935;27;46487;-69
2021/08/19 09:27:15;;;;;;;;;3.50;3.25;;;;;20.68;100.00;101497.69;5118567;27;45606;-69
2021/08/19 09:29:41;;;;;;;;;2.75;2.50;;;;;20.70;100.00;101481.69;5118962;27;45447;-68
2021/08/19 09:32:11;;;;;;;;;2.25;2.25;;;;;20.72;100.00;101490.44;5119235;27;45344;-68
2021/08/19 09:34:39;;;;;;;;;2.00;2.00;;;;;20.75;100.00;101482.34;5118833;27;45473;-69
2021/08/19 09:37:09;;;;;;;;;2.75;2.75;;;;;20.78;100.00;101480.41;5118495;27;45505;-69
2021/08/19 09:39:40;;;;;;;;;1.75;1.00;;;;;20.78;100.00;101476.88;5118695;27;45278;-68
2021/08/19 09:42:07;;;;;;;;;1.00;1.00;;;;;20.73;100.00;101460.31;5118761;27;45256;-68
2021/08/19 09:44:40;;;;;;;;;1.75;1.00;;;;;20.86;100.00;101474.78;5118246;27;46536;-69
2021/08/19 09:47:26;;;;;;;;;1.50;1.50;;;;;20.93;100.00;101470.03;5118284;27;45237;-68
2021/08/19 09:50:08;;;;;;;;;1.00;1.00;;;;;21.10;100.00;101473.66;5118625;27;45214;-69
2021/08/19 09:52:33;;;;;;;;;1.00;1.00;;;;;21.17;100.00;101468.03;5118686;27;45528;-69
2021/08/19 09:55:31;;;;;;;;;1.25;1.25;;;;;21.35;100.00;101469.88;5118267;27;46388;-70
2021/08/19 09:57:58;;;;;;;;;3.75;3.00;;;;;21.53;100.00;101458.38;5117854;27;45566;-70
2021/08/19 10:00:38;;;;;;;;;1.00;1.00;;;;;21.64;100.00;101464.00;5118420;27;45324;-67
2021/08/19 10:03:04;;;;;;;;;3.00;2.75;;;;;21.81;100.00;101460.53;5118396;27;45528;-70
2021/08/19 10:05:29;;;;;;;;;2.00;2.00;;;;;22.02;100.00;101461.25;5117979;27;46733;-72
2021/08/19 10:07:57;;;;;;;;;2.25;2.25;;;;;22.19;100.00;101463.97;5118168;27;45318;-69
2021/08/19 10:10:22;;;;;;;;;1.00;1.00;;;;;22.21;100.00;101461.22;5118173;27;45281;-67
2021/08/19 10:12:48;;;;;;;;;2.25;1.00;;;;;22.16;100.00;101456.13;5118338;27;45302;-69
2021/08/19 10:15:14;;;;;;;;;2.00;1.00;;;;;22.27;100.00;101463.56;5117957;27;46425;-70
2021/08/19 10:17:45;;;;;;;;;1.00;1.00;;;;;22.38;100.00;101457.66;5117970;27;45556;-70
2021/08/19 10:20:14;;;;;;;;;2.00;1.00;;;;;22.44;100.00;101447.59;5118150;27;45402;-70
2021/08/19 10:22:40;;;;;;;;;3.00;2.00;;;;;22.58;100.00;101465.47;5121636;27;45407;-68
2021/08/19 10:25:10;;;;;;;;;2.00;2.00;;;;;22.60;100.00;101456.47;5121450;27;46403;-68
2021/08/19 10:27:35;;;;;;;;;2.25;2.00;;;;;22.53;100.00;101465.72;5121806;27;45498;-68
2021/08/19 10:30:04;;;;;;;;;1.25;1.25;;;;;22.42;100.00;101459.25;5121979;27;45274;-70
2021/08/19 10:32:32;;;;;;;;;1.00;1.00;;;;;22.33;100.00;101465.91;5122012;27;45386;-70
2021/08/19 10:35:07;;;;;;;;;1.00;1.00;;;;;22.22;100.00;101466.47;5121330;27;46549;-70
2021/08/19 10:37:44;;;;;;;;;1.50;1.25;;;;;22.22;100.00;101463.81;5121264;27;45287;-69
2021/08/19 10:40:19;;;;;;;;;2.25;2.00;;;;;22.30;100.00;101456.28;5121318;27;45234;-68
2021/08/19 10:42:49;;;;;;;;;2.00;1.00;;;;;22.35;100.00;101456.03;5121622;27;45357;-69
2021/08/19 10:45:26;;;;;;;;;1.00;1.00;;;;;22.38;100.00;101457.66;5121008;27;47490;-69
2021/08/19 10:47:52;;;;;;;;;1.00;1.00;;;;;22.36;100.00;101449.75;5121191;27;45375;-69
2021/08/19 10:50:38;;;;;;;;;1.00;1.00;;;;;22.30;100.00;101452.75;5121483;27;45362;-69
2021/08/19 10:53:16;;;;;;;;;2.00;2.00;;;;;22.25;100.00;101463.63;5121425;27;45516;-69
2021/08/19 10:55:49;;;;;;;;;3.00;1.50;;;;;22.28;100.00;101466.13;5121206;27;46327;-69
2021/08/19 10:58:33;;;;;;;;;1.25;1.25;;;;;22.31;100.00;101465.97;5121308;27;45272;-69
2021/08/19 11:01:01;;;;;;;;;1.00;1.00;;;;;22.39;100.00;101454.91;5121235;27;45370;-69
2021/08/19 11:03:35;;;;;;;;;2.00;2.00;;;;;22.47;100.00;101458.06;5121015;27;45335;-69
2021/08/19 11:06:02;;;;;;;;;3.00;2.00;;;;;22.53;100.00;101460.41;5121126;27;45430;-69
2021/08/19 11:08:46;;;;;;;;;2.25;1.25;;;;;22.50;100.00;101462.38;5121278;27;45527;-69
2021/08/19 11:11:31;;;;;;;;;2.00;2.00;;;;;22.43;100.00;101461.84;5121140;27;45380;-69
2021/08/19 11:17:18;;;;;;;;;2.75;2.00;;;;;22.37;100.00;101463.94;5120844;27;45765;-68
2021/08/19 11:19:44;;;;;;;;;2.50;2.00;;;;;22.29;100.00;101453.69;5120826;27;45378;-68
2021/08/19 11:22:09;;;;;;;;;1.00;1.00;;;;;22.17;100.00;101433.88;5120910;27;45316;-68
2021/08/19 11:24:37;;;;;;;;;2.00;1.50;;;;;22.25;100.00;101444.16;5120963;27;45321;-69
2021/08/19 11:27:06;;;;;;;;;2.00;1.50;;;;;22.28;100.00;101463.47;5120629;27;47352;-69
2021/08/19 11:33:12;;;;;;;;;2.00;2.00;;;;;22.16;100.00;101452.59;5119397;27;45318;-69
2021/08/19 11:35:39;;;;;;;;;1.25;1.00;;;;;22.18;100.00;101462.25;5121171;27;45382;-68
2021/08/19 11:38:19;;;;;;;;;1.75;1.75;;;;;22.21;100.00;101451.44;5120405;27;46546;-68
2021/08/19 11:40:48;;;;;;;;;2.00;2.00;;;;;22.26;100.00;101446.72;5120691;27;45506;-69
2021/08/19 11:43:29;;;;;;;;;2.50;2.00;;;;;22.31;100.00;101458.00;5120724;27;45221;-69
2021/08/19 11:49:17;;;;;;;;;2.00;1.00;;;;;22.22;100.00;101449.63;5120247;27;45529;-69
2021/08/19 11:51:43;;;;;;;;;0.00;0.00;;;;;22.25;100.00;101457.47;5120296;27;45333;-69
2021/08/19 11:54:14;;;;;;;;;1.50;1.00;;;;;22.24;100.00;101453.06;5120394;27;45315;-69
2021/08/19 11:56:45;;;;;;;;;2.00;2.00;;;;;22.26;100.00;101444.06;5102277;27;45448;-69
2021/08/19 11:59:13;;;;;;;;;3.00;2.00;;;;;22.22;100.00;101442.50;5120401;27;46515;-69
2021/08/19 12:01:47;;;;;;;;;2.00;2.00;;;;;22.29;100.00;101448.38;5120525;27;45220;-69
2021/08/19 12:04:12;;;;;;;;;2.00;2.00;;;;;22.26;100.00;101444.06;5120167;27;45281;-69
2021/08/19 12:06:38;;;;;;;;;1.75;1.75;;;;;22.36;100.00;101447.09;5120177;27;45237;-69
2021/08/19 12:09:06;;;;;;;;;2.25;2.00;;;;;22.47;100.00;101444.75;5119900;27;46247;-71
2021/08/19 12:11:37;;;;;;;;;1.50;1.00;;;;;22.58;100.00;101446.84;5120053;27;45354;-70
2021/08/19 12:14:03;;;;;;;;;0.50;0.50;;;;;22.61;100.00;101444.00;5120088;27;45195;-70
2021/08/19 12:16:30;;;;;;;;;2.25;2.00;;;;;22.62;100.00;101435.94;5120530;27;45353;-70
2021/08/19 12:19:08;;;;;;;;;2.00;2.00;;;;;22.69;100.00;101448.94;5119987;27;45438;-69
2021/08/19 12:21:35;;;;;;;;;1.75;1.75;;;;;22.61;100.00;101444.00;5120052;27;45299;-68
2021/08/19 12:24:16;;;;;;;;;2.00;1.00;;;;;22.55;100.00;101445.19;5120135;27;45298;-68
2021/08/19 12:26:42;;;;;;;;;3.00;2.00;;;;;22.49;100.00;101442.00;5120159;27;45480;-69